Time;durP1;ratioP1;P1;durP2;ratioP2;P2;SDS_P1;SDS_P2;PMS_P1;PMS_P2;Temp;Humidity;BMP_temperature;BMP_pressure;BME280_temperature;BME280_humidity;BME280_pressure;Samples;Min_cycle;Max_cycle;Signal;HPM_P1;HPM_P2
2021/11/12 00:03:23;;;;;;;81.22;43.15;;;8.20;99.90;;;;;;5110648;28;20036;-71
2021/11/12 00:12:15;;;;;;;75.95;42.25;;;8.20;99.90;;;;;;5109486;28;20535;-71
2021/11/12 00:14:07;;;;;;;80.45;43.13;;;8.10;99.90;;;;;;5109432;28;20028;-71
2021/11/12 00:16:35;;;;;;;74.32;40.60;;;8.10;99.90;;;;;;5110847;28;20027;-70
2021/11/12 00:19:01;;;;;;;80.20;43.35;;;8.10;99.90;;;;;;5111062;28;20097;-71
2021/11/12 00:21:26;;;;;;;75.07;41.95;;;8.10;99.90;;;;;;5109838;28;20084;-71
2021/11/12 00:23:52;;;;;;;76.30;43.75;;;8.10;99.90;;;;;;5110953;28;20028;-71
2021/11/12 00:26:19;;;;;;;88.18;43.53;;;8.10;99.90;;;;;;5110879;28;20089;-71
2021/11/12 00:28:55;;;;;;;85.95;44.10;;;8.10;99.90;;;;;;5108975;28;20066;-71
2021/11/12 00:34:39;;;;;;;81.22;44.10;;;8.10;99.90;;;;;;5110198;28;20376;-71
2021/11/12 00:36:51;;;;;;;83.32;45.38;;;8.10;99.90;;;;;;5110041;28;20136;-71
2021/11/12 00:39:24;;;;;;;76.50;42.97;;;8.10;99.90;;;;;;5105615;28;20028;-71
2021/11/12 00:42:11;;;;;;;82.40;45.22;;;8.10;99.90;;;;;;5096545;28;20038;-71
2021/11/12 00:44:44;;;;;;;83.68;45.67;;;8.10;99.90;;;;;;5096302;28;20032;-71
2021/11/12 00:47:21;;;;;;;84.55;44.17;;;8.10;99.90;;;;;;5096320;28;20027;-70
2021/11/12 00:50:04;;;;;;;80.63;42.85;;;8.10;99.90;;;;;;5096915;28;20052;-71
2021/11/12 00:52:44;;;;;;;84.82;44.85;;;8.10;99.90;;;;;;5096872;28;20082;-70
2021/11/12 00:55:10;;;;;;;78.68;43.53;;;8.10;99.90;;;;;;5096553;28;20056;-71
2021/11/12 00:57:35;;;;;;;86.50;48.30;;;8.00;99.90;;;;;;5096727;28;20035;-71
2021/11/12 01:00:03;;;;;;;85.72;46.50;;;8.00;99.90;;;;;;5096408;28;20529;-70
2021/11/12 01:02:29;;;;;;;84.75;46.40;;;8.00;99.90;;;;;;5096672;28;20044;-70
2021/11/12 01:04:54;;;;;;;81.60;46.45;;;8.10;99.90;;;;;;5096600;28;20027;-71
2021/11/12 01:07:20;;;;;;;82.88;43.88;;;8.10;99.90;;;;;;5095308;28;20471;-71
2021/11/12 01:09:46;;;;;;;88.28;47.83;;;8.00;99.90;;;;;;5096480;28;20542;-71
2021/11/12 01:12:11;;;;;;;94.25;47.97;;;8.00;99.90;;;;;;5096489;28;20089;-70
2021/11/12 01:14:37;;;;;;;89.68;47.65;;;8.00;99.90;;;;;;5095228;28;20028;-70
2021/11/12 01:17:03;;;;;;;90.65;48.03;;;8.00;99.90;;;;;;5095803;28;20020;-70
2021/11/12 01:19:28;;;;;;;94.40;48.53;;;8.00;99.90;;;;;;5096309;28;20458;-70
2021/11/12 01:21:54;;;;;;;84.60;46.40;;;8.00;99.90;;;;;;5095197;28;20044;-70
2021/11/12 01:24:20;;;;;;;92.97;47.00;;;8.00;99.90;;;;;;5095981;28;20498;-70
2021/11/12 01:26:45;;;;;;;87.43;49.15;;;8.00;99.90;;;;;;5096187;28;20024;-70
2021/11/12 01:29:11;;;;;;;91.15;46.92;;;8.00;99.90;;;;;;5095455;28;20043;-70
2021/11/12 01:31:37;;;;;;;83.68;44.78;;;8.00;99.90;;;;;;5096069;28;20127;-71
2021/11/12 01:34:06;;;;;;;86.55;47.47;;;8.00;99.90;;;;;;5095499;28;20024;-71
2021/11/12 01:36:37;;;;;;;90.63;47.35;;;8.00;99.90;;;;;;5095751;28;20027;-71
2021/11/12 01:39:08;;;;;;;92.30;49.15;;;8.00;99.90;;;;;;5095435;28;20024;-71
2021/11/12 01:41:38;;;;;;;94.10;48.28;;;8.00;99.90;;;;;;5095928;28;20034;-71
2021/11/12 01:44:08;;;;;;;85.03;46.95;;;8.00;99.90;;;;;;5094873;28;20028;-70
2021/11/12 01:46:44;;;;;;;77.88;43.70;;;8.00;99.90;;;;;;5095778;28;20073;-71
2021/11/12 01:49:16;;;;;;;87.15;47.45;;;8.00;99.90;;;;;;5095097;28;20027;-71
2021/11/12 01:51:49;;;;;;;90.65;49.28;;;8.00;99.90;;;;;;5094461;28;20023;-70
2021/11/12 01:57:11;;;;;;;92.13;49.50;;;8.00;99.90;;;;;;5091897;28;20435;-70
2021/11/12 01:59:37;;;;;;;88.60;48.40;;;8.00;99.90;;;;;;5091554;28;20056;-70
2021/11/12 02:02:08;;;;;;;94.95;49.35;;;7.90;99.90;;;;;;5091533;28;20420;-70
2021/11/12 02:04:35;;;;;;;95.53;49.70;;;7.90;99.90;;;;;;5090937;28;20028;-70
2021/11/12 02:07:01;;;;;;;94.22;49.30;;;8.00;99.90;;;;;;5091437;28;20019;-70
2021/11/12 02:09:28;;;;;;;92.18;50.45;;;7.90;99.90;;;;;;5091383;28;20028;-70
2021/11/12 02:12:07;;;;;;;91.07;49.55;;;7.90;99.90;;;;;;5091068;28;20044;-70
2021/11/12 02:14:33;;;;;;;94.57;49.55;;;7.90;99.90;;;;;;5091228;28;20024;-70
2021/11/12 02:17:10;;;;;;;96.32;51.15;;;7.90;99.90;;;;;;5072791;28;20016;-71
2021/11/12 02:19:37;;;;;;;99.25;52.63;;;7.90;99.90;;;;;;5091221;28;20055;-69
2021/11/12 02:22:08;;;;;;;100.95;51.22;;;7.90;99.90;;;;;;5090003;28;20032;-70
2021/11/12 02:24:39;;;;;;;95.22;52.53;;;7.90;99.90;;;;;;5090538;28;20021;-70
2021/11/12 02:27:06;;;;;;;97.03;52.65;;;7.80;99.90;;;;;;5090791;28;20016;-69
2021/11/12 02:29:33;;;;;;;102.43;52.88;;;7.80;99.90;;;;;;5091040;28;20043;-70
2021/11/12 02:31:58;;;;;;;101.45;52.05;;;7.80;99.90;;;;;;5090677;28;20461;-71
2021/11/12 02:34:25;;;;;;;102.55;53.38;;;7.80;99.90;;;;;;5090926;28;20024;-70
2021/11/12 02:36:53;;;;;;;97.25;51.30;;;7.80;99.90;;;;;;5090788;28;20350;-70
2021/11/12 02:39:19;;;;;;;92.93;49.47;;;7.80;99.90;;;;;;5090818;28;20024;-71
2021/11/12 02:41:45;;;;;;;92.15;50.70;;;7.80;99.90;;;;;;5090222;28;20027;-71
2021/11/12 02:44:11;;;;;;;84.72;47.67;;;7.80;99.90;;;;;;5090723;28;20020;-71
2021/11/12 02:46:37;;;;;;;89.85;48.63;;;7.80;99.90;;;;;;5090439;28;20052;-71
2021/11/12 02:49:03;;;;;;;92.47;51.25;;;7.70;99.90;;;;;;5089696;28;20166;-71
2021/11/12 02:51:34;;;;;;;93.03;49.58;;;7.70;99.90;;;;;;5071863;28;20032;-70
2021/11/12 02:54:02;;;;;;;92.85;50.13;;;7.70;99.90;;;;;;5090538;28;20028;-71
2021/11/12 02:56:30;;;;;;;89.30;49.33;;;7.70;99.90;;;;;;5089762;28;20481;-71
2021/11/12 02:59:02;;;;;;;89.95;51.03;;;7.70;99.90;;;;;;5089930;28;20028;-69
2021/11/12 03:01:29;;;;;;;99.90;51.40;;;7.70;99.90;;;;;;5089000;28;20480;-71
2021/11/12 03:03:55;;;;;;;92.78;49.45;;;7.70;99.90;;;;;;5090492;28;20024;-70
2021/11/12 03:06:22;;;;;;;90.10;48.95;;;7.70;99.90;;;;;;5087648;28;20087;-70
2021/11/12 03:08:48;;;;;;;92.75;48.30;;;7.70;99.90;;;;;;5075789;28;20020;-70
2021/11/12 03:11:14;;;;;;;96.75;49.58;;;7.60;99.90;;;;;;5076730;28;20025;-71
2021/11/12 03:13:40;;;;;;;92.25;49.10;;;7.60;99.90;;;;;;5076112;28;20532;-71
2021/11/12 03:16:06;;;;;;;96.25;49.28;;;7.60;99.90;;;;;;5075132;28;20036;-71
2021/11/12 03:18:32;;;;;;;91.53;49.25;;;7.60;99.90;;;;;;5074807;28;20477;-71
2021/11/12 03:21:00;;;;;;;111.22;56.50;;;7.60;99.90;;;;;;5076499;28;20116;-71
2021/11/12 03:23:32;;;;;;;105.22;53.40;;;7.60;99.90;;;;;;5076199;28;20462;-71
2021/11/12 03:26:22;;;;;;;107.32;55.10;;;7.60;99.90;;;;;;5075063;28;20025;-71
2021/11/12 03:29:21;;;;;;;99.72;52.80;;;7.60;99.90;;;;;;5075746;28;20070;-71
2021/11/12 03:46:57;;;;;;;103.97;53.15;;;7.60;99.90;;;;;;5075675;28;20032;-71
2021/11/12 04:02:00;;;;;;;105.93;55.83;;;7.60;99.90;;;;;;5075108;28;20539;-69
2021/11/12 04:04:36;;;;;;;108.18;55.15;;;7.60;99.90;;;;;;5075741;28;20082;-71
2021/11/12 04:07:11;;;;;;;105.07;55.47;;;7.60;99.90;;;;;;5075678;28;20543;-70
2021/11/12 05:10:05;;;;;;;87.85;48.83;;;6.60;99.90;;;;;;5110553;28;20411;-70
2021/11/12 05:33:27;;;;;;;92.35;48.08;;;6.00;99.90;;;;;;5111111;28;20019;-70
2021/11/12 05:34:39;;;;;;;105.40;54.17;;;5.70;99.90;;;;;;5109861;28;20093;-70
2021/11/12 05:51:10;;;;;;;100.90;52.03;;;5.50;99.90;;;;;;5110636;28;20027;-70
2021/11/12 05:56:21;;;;;;;101.50;50.22;;;5.10;99.90;;;;;;5110513;28;20020;-70
2021/11/12 05:58:47;;;;;;;98.55;50.58;;;5.00;99.90;;;;;;5111157;28;20043;-69
2021/11/12 06:01:13;;;;;;;97.32;51.47;;;4.90;99.90;;;;;;5109987;28;20016;-69
2021/11/12 06:03:39;;;;;;;129.85;61.08;;;4.80;99.90;;;;;;5109333;28;20023;-69
2021/11/12 06:06:05;;;;;;;120.07;59.90;;;4.90;99.90;;;;;;5110779;28;20023;-68
2021/11/12 06:08:31;;;;;;;127.88;61.05;;;5.00;99.90;;;;;;5110978;28;20020;-69
2021/11/12 06:10:56;;;;;;;137.77;63.35;;;5.00;99.90;;;;;;5109719;28;20031;-69
2021/11/12 06:13:22;;;;;;;130.07;63.85;;;5.00;99.90;;;;;;5109940;28;20051;-69
2021/11/12 06:15:48;;;;;;;143.93;65.88;;;5.10;99.90;;;;;;5110468;28;20027;-68
2021/11/12 06:18:13;;;;;;;149.05;65.22;;;5.10;99.90;;;;;;5110768;28;20415;-68
2021/11/12 06:20:39;;;;;;;144.43;64.43;;;5.00;99.90;;;;;;5109485;28;20077;-69
2021/11/12 06:23:05;;;;;;;159.50;70.32;;;5.00;99.90;;;;;;5110672;28;20051;-69
2021/11/12 06:25:32;;;;;;;162.93;71.18;;;5.10;99.90;;;;;;5101301;28;20446;-69
2021/11/12 06:27:57;;;;;;;182.88;75.97;;;5.10;99.90;;;;;;5096995;28;20469;-69
2021/11/12 06:30:23;;;;;;;190.27;74.80;;;5.10;99.90;;;;;;5096689;28;20027;-69
2021/11/12 06:32:49;;;;;;;166.35;73.43;;;5.10;99.90;;;;;;5095599;28;20027;-69
2021/11/12 06:35:14;;;;;;;177.05;74.13;;;5.10;99.90;;;;;;5095100;28;20092;-69
2021/11/12 06:37:40;;;;;;;174.27;73.22;;;5.10;99.90;;;;;;5096779;28;20023;-69
2021/11/12 06:40:07;;;;;;;179.90;74.88;;;5.10;99.90;;;;;;5095785;28;20373;-69
2021/11/12 06:42:38;;;;;;;203.43;81.72;;;5.10;99.90;;;;;;5096710;28;20098;-69
2021/11/12 06:50:38;;;;;;;243.70;90.63;;;5.30;99.90;;;;;;5095850;28;20511;-69
2021/11/12 06:53:04;;;;;;;213.63;86.50;;;5.20;99.90;;;;;;5096462;28;20034;-69
2021/11/12 06:55:30;;;;;;;230.82;89.85;;;5.20;99.90;;;;;;5096218;28;20022;-69
2021/11/12 06:57:56;;;;;;;239.85;87.72;;;5.20;99.90;;;;;;5096462;28;20020;-69
2021/11/12 07:00:22;;;;;;;227.45;88.05;;;5.10;99.90;;;;;;5095793;28;20078;-69
2021/11/12 07:02:48;;;;;;;215.68;83.75;;;5.20;99.90;;;;;;5094444;28;20389;-69
2021/11/12 07:05:15;;;;;;;214.90;83.95;;;5.20;99.90;;;;;;5095921;28;20055;-69
2021/11/12 07:07:42;;;;;;;194.05;78.28;;;5.20;99.90;;;;;;5094607;28;20385;-69
2021/11/12 07:10:09;;;;;;;192.43;78.93;;;5.10;99.90;;;;;;5096105;28;20024;-70
2021/11/12 07:12:35;;;;;;;216.05;81.68;;;5.10;99.90;;;;;;5094667;28;20020;-69
2021/11/12 07:15:01;;;;;;;188.70;78.72;;;5.20;99.90;;;;;;5094005;28;20464;-69
2021/11/12 07:17:26;;;;;;;190.85;74.65;;;5.20;99.90;;;;;;5095869;28;20107;-69
2021/11/12 07:19:52;;;;;;;193.25;78.07;;;5.30;99.90;;;;;;5094495;28;20465;-68
2021/11/12 07:22:18;;;;;;;206.27;82.25;;;5.50;99.90;;;;;;5095555;28;20023;-68
2021/11/12 07:24:44;;;;;;;245.00;98.72;;;5.70;99.90;;;;;;5093882;28;20130;-68
2021/11/12 07:27:10;;;;;;;256.42;106.93;;;6.70;99.90;;;;;;5094646;28;20520;-69
2021/11/12 07:29:38;;;;;;;231.30;102.18;;;7.40;99.90;;;;;;5094004;28;20039;-69
2021/11/12 07:32:06;;;;;;;216.25;104.22;;;8.10;99.90;;;;;;5095469;28;20016;-69
2021/11/12 07:34:32;;;;;;;162.07;84.35;;;8.60;99.90;;;;;;5095315;28;20377;-69
2021/11/12 07:37:13;;;;;;;116.07;58.60;;;9.20;99.90;;;;;;5092778;28;20061;-69
2021/11/12 07:42:29;;;;;;;55.50;30.60;;;10.30;99.90;;;;;;5106409;27;20397;-69
2021/11/12 07:45:03;;;;;;;39.35;23.52;;;10.30;99.90;;;;;;5091513;28;20047;-69
2021/11/12 07:47:29;;;;;;;37.08;22.85;;;10.80;99.90;;;;;;5090476;28;20044;-70
2021/11/12 07:49:57;;;;;;;27.48;19.23;;;10.80;99.90;;;;;;5091359;28;20470;-69
2021/11/12 07:52:28;;;;;;;23.42;17.25;;;10.80;99.90;;;;;;5090453;28;20017;-68
2021/11/12 07:54:55;;;;;;;29.35;18.33;;;11.40;99.90;;;;;;5090477;28;20036;-68
2021/11/12 07:57:21;;;;;;;21.42;16.13;;;12.20;99.90;;;;;;5105853;28;20031;-71
2021/11/12 07:59:47;;;;;;;24.35;16.13;;;12.80;99.90;;;;;;5089307;28;20026;-71
2021/11/12 08:02:14;;;;;;;50.30;31.67;;;13.20;99.90;;;;;;5085478;28;20051;-71
2021/11/12 08:04:41;;;;;;;38.38;24.70;;;13.60;99.90;;;;;;5087199;28;20099;-70
2021/11/12 08:07:09;;;;;;;25.33;17.10;;;13.90;99.90;;;;;;5090981;28;20027;-71
2021/11/12 08:09:37;;;;;;;16.33;12.50;;;14.10;99.90;;;;;;5090255;28;20465;-71
2021/11/12 08:12:06;;;;;;;16.77;12.00;;;14.00;99.90;;;;;;5090362;28;20093;-71
2021/11/12 08:18:04;;;;;;;15.10;11.27;;;13.70;99.90;;;;;;5090062;28;20485;-71
2021/11/12 08:20:24;;;;;;;12.18;8.95;;;13.40;99.90;;;;;;5089332;28;20050;-71
2021/11/12 08:23:01;;;;;;;13.70;10.68;;;13.70;99.90;;;;;;5090035;28;20024;-71
2021/11/12 08:25:40;;;;;;;11.07;9.10;;;13.90;99.90;;;;;;5090778;28;20027;-70
2021/11/12 08:31:00;;;;;;;11.65;9.68;;;14.40;99.90;;;;;;5072118;28;20398;-71
2021/11/12 08:33:46;;;;;;;17.85;12.07;;;14.20;99.90;;;;;;5089503;28;20021;-71
2021/11/12 08:36:31;;;;;;;10.80;8.23;;;14.10;99.90;;;;;;5090426;28;20022;-71
2021/11/12 08:41:47;;;;;;;11.63;10.38;;;13.50;99.90;;;;;;5087710;28;20040;-71
2021/11/12 08:44:36;;;;;;;12.48;10.77;;;13.90;99.90;;;;;;5090184;28;20025;-71
2021/11/12 08:49:37;;;;;;;12.32;9.00;;;13.40;99.90;;;;;;5089012;28;20028;-71
2021/11/12 08:52:04;;;;;;;10.75;8.70;;;13.20;99.90;;;;;;5084653;28;20378;-71
2021/11/12 08:54:35;;;;;;;10.27;8.82;;;12.90;99.90;;;;;;5075400;28;20070;-71
2021/11/12 08:57:05;;;;;;;13.57;9.30;;;12.40;99.90;;;;;;5075779;28;20439;-71
2021/11/12 08:59:31;;;;;;;14.63;8.90;;;12.60;99.90;;;;;;5075968;28;20382;-71
2021/11/12 09:01:57;;;;;;;24.77;9.20;;;13.10;99.90;;;;;;5073087;28;20036;-71
2021/11/12 09:04:23;;;;;;;12.27;9.15;;;13.20;99.90;;;;;;5074961;28;20374;-71
2021/11/12 09:06:49;;;;;;;12.38;9.57;;;12.50;99.90;;;;;;5074905;28;20028;-71
2021/11/12 09:09:14;;;;;;;12.07;9.75;;;12.20;99.90;;;;;;5075720;28;20029;-71
2021/11/12 09:11:40;;;;;;;13.90;9.05;;;12.20;99.90;;;;;;5076070;28;20081;-71
2021/11/12 09:14:09;;;;;;;15.52;10.05;;;12.40;99.90;;;;;;5075855;28;20373;-70
2021/11/12 09:16:36;;;;;;;13.75;9.35;;;12.70;99.90;;;;;;5074038;28;20039;-71
2021/11/12 09:19:03;;;;;;;14.38;9.75;;;12.70;99.90;;;;;;5091529;28;20036;-70
2021/11/12 09:21:30;;;;;;;12.65;9.50;;;13.50;99.90;;;;;;5072598;28;20067;-71
2021/11/12 09:23:57;;;;;;;14.07;10.25;;;12.70;99.90;;;;;;5074089;28;20099;-70
2021/11/12 09:26:24;;;;;;;12.75;10.48;;;12.60;99.90;;;;;;5074104;28;20024;-71
2021/11/12 09:28:51;;;;;;;16.25;10.55;;;12.70;99.90;;;;;;5075823;28;20023;-71
2021/11/12 09:31:17;;;;;;;13.20;10.50;;;12.80;99.90;;;;;;5081049;28;20051;-71
2021/11/12 09:33:43;;;;;;;13.48;9.55;;;12.90;99.90;;;;;;5075845;28;20016;-70
2021/11/12 09:36:09;;;;;;;14.73;10.65;;;12.60;99.90;;;;;;5090768;28;20056;-72
2021/11/12 09:38:37;;;;;;;13.15;9.98;;;12.70;99.90;;;;;;5077578;28;20363;-72
2021/11/12 09:41:05;;;;;;;16.30;11.25;;;12.90;99.90;;;;;;5076121;28;20044;-70
2021/11/12 09:43:31;;;;;;;14.73;10.73;;;12.10;99.90;;;;;;5101146;28;20474;-70
2021/11/12 09:45:56;;;;;;;15.30;11.45;;;12.40;99.90;;;;;;5084177;28;20021;-71
2021/11/12 09:48:22;;;;;;;14.68;11.43;;;12.50;99.90;;;;;;5074564;28;20506;-71
2021/11/12 09:50:49;;;;;;;12.80;11.00;;;12.60;99.90;;;;;;5075220;28;20024;-72
2021/11/12 09:53:15;;;;;;;17.90;11.52;;;12.90;99.90;;;;;;5074885;28;20028;-71
2021/11/12 09:55:41;;;;;;;13.93;11.40;;;12.90;99.90;;;;;;5075126;28;20048;-70
2021/11/12 09:58:07;;;;;;;14.48;11.98;;;12.70;99.90;;;;;;5081392;28;20020;-71
2021/11/12 10:00:34;;;;;;;16.30;12.43;;;12.20;99.90;;;;;;5074475;28;20036;-71
2021/11/12 10:03:02;;;;;;;17.85;12.73;;;12.30;99.90;;;;;;5074925;28;20020;-71
2021/11/12 10:05:45;;;;;;;14.88;12.30;;;12.20;99.90;;;;;;5073321;28;20023;-71
2021/11/12 10:08:33;;;;;;;16.33;13.27;;;12.20;99.90;;;;;;5073683;28;20021;-69
2021/11/12 10:11:03;;;;;;;15.13;11.65;;;12.40;99.90;;;;;;5074467;28;20028;-70
2021/11/12 10:13:33;;;;;;;15.35;12.32;;;12.60;99.90;;;;;;5074458;28;20472;-71
2021/11/12 10:19:18;;;;;;;18.63;12.85;;;12.70;99.90;;;;;;5090623;28;20130;-71
2021/11/12 10:21:57;;;;;;;16.80;12.85;;;12.60;99.90;;;;;;5090063;28;20024;-71
2021/11/12 10:24:28;;;;;;;20.65;13.85;;;12.30;99.90;;;;;;5084665;28;20036;-71
2021/11/12 10:26:58;;;;;;;18.17;13.38;;;12.50;99.90;;;;;;5088051;28;20024;-71
2021/11/12 10:29:31;;;;;;;17.58;13.90;;;12.90;99.90;;;;;;5089982;28;20527;-71
2021/11/12 10:32:00;;;;;;;19.63;13.57;;;12.70;99.90;;;;;;5090256;28;20086;-71
2021/11/12 10:34:30;;;;;;;18.20;14.20;;;12.70;99.90;;;;;;5089206;28;20024;-71
2021/11/12 10:37:03;;;;;;;22.77;14.27;;;13.20;99.90;;;;;;5090215;28;20107;-69
2021/11/12 10:39:33;;;;;;;17.55;14.23;;;13.30;99.90;;;;;;5090938;28;20380;-71
2021/11/12 10:42:02;;;;;;;20.83;14.98;;;13.00;99.90;;;;;;5090154;28;20021;-71
2021/11/12 10:44:29;;;;;;;20.95;15.70;;;12.90;99.90;;;;;;5090145;28;20020;-71
2021/11/12 10:46:54;;;;;;;25.15;16.90;;;12.60;99.90;;;;;;5093584;28;20073;-72
2021/11/12 10:49:23;;;;;;;22.30;16.48;;;12.50;99.90;;;;;;5093201;28;20032;-70
2021/11/12 10:51:51;;;;;;;22.42;17.70;;;12.50;99.90;;;;;;5090204;28;20027;-70
2021/11/12 10:54:42;;;;;;;25.38;17.42;;;12.70;99.90;;;;;;5090245;28;20032;-69
2021/11/12 10:57:09;;;;;;;26.15;18.55;;;12.90;99.90;;;;;;5069965;28;20025;-70
2021/11/12 10:59:35;;;;;;;26.45;17.52;;;12.80;99.90;;;;;;5087217;28;20077;-71
2021/11/12 11:02:03;;;;;;;25.88;18.08;;;12.90;99.90;;;;;;5089578;28;20056;-71
2021/11/12 11:04:30;;;;;;;26.80;17.23;;;12.60;99.90;;;;;;5090345;28;20017;-71
2021/11/12 11:07:16;;;;;;;23.98;17.17;;;12.80;99.90;;;;;;5092929;28;20019;-71
2021/11/12 11:09:42;;;;;;;25.85;16.50;;;12.40;99.90;;;;;;5110831;28;20020;-70
2021/11/12 11:12:08;;;;;;;28.42;18.58;;;12.10;99.90;;;;;;5077130;28;20537;-70
2021/11/12 11:14:33;;;;;;;26.98;18.38;;;11.60;99.90;;;;;;5090355;28;20048;-70
2021/11/12 11:17:24;;;;;;;26.88;18.40;;;11.20;99.90;;;;;;5087466;28;20068;-71
2021/11/12 11:19:49;;;;;;;28.40;18.73;;;11.60;99.90;;;;;;5076402;28;20107;-71
2021/11/12 11:22:16;;;;;;;26.83;17.23;;;11.80;99.90;;;;;;5069176;28;20048;-69
2021/11/12 11:24:42;;;;;;;26.45;18.45;;;11.80;99.90;;;;;;5072177;28;20488;-69
2021/11/12 11:27:08;;;;;;;28.88;18.58;;;11.80;99.90;;;;;;5087706;28;20025;-69
2021/11/12 11:29:33;;;;;;;24.70;17.52;;;11.90;99.90;;;;;;5080667;28;20021;-69
2021/11/12 11:32:00;;;;;;;26.45;17.77;;;11.90;99.90;;;;;;5075755;28;20035;-69
2021/11/12 11:34:27;;;;;;;26.77;18.52;;;11.80;99.90;;;;;;5055824;28;20426;-69
2021/11/12 11:36:58;;;;;;;28.35;19.15;;;11.90;99.90;;;;;;5056337;28;20021;-69
2021/11/12 11:39:24;;;;;;;30.13;19.05;;;11.80;99.90;;;;;;5072083;28;20032;-70
2021/11/12 11:41:50;;;;;;;29.45;18.15;;;11.70;99.90;;;;;;5055769;28;20052;-70
2021/11/12 11:44:19;;;;;;;28.13;18.27;;;11.90;99.90;;;;;;5074093;28;20028;-70
2021/11/12 11:46:49;;;;;;;27.08;18.50;;;11.70;99.90;;;;;;5076345;28;20078;-70
2021/11/12 11:49:18;;;;;;;26.77;18.08;;;11.50;99.90;;;;;;5074004;28;20021;-69
2021/11/12 11:51:52;;;;;;;26.92;18.90;;;11.60;99.90;;;;;;5074080;28;20106;-70
2021/11/12 11:54:20;;;;;;;26.65;18.10;;;11.60;99.90;;;;;;5073775;28;20025;-69
2021/11/12 11:56:49;;;;;;;27.23;17.30;;;11.70;99.90;;;;;;5074345;28;20024;-70
2021/11/12 11:59:24;;;;;;;27.95;18.23;;;11.80;99.90;;;;;;5055614;28;20021;-71
2021/11/12 12:01:55;;;;;;;27.50;17.02;;;11.80;99.90;;;;;;5056316;28;20079;-70
2021/11/12 12:04:24;;;;;;;26.60;17.63;;;11.80;99.90;;;;;;5076033;28;20091;-70
2021/11/12 12:07:16;;;;;;;28.80;18.70;;;11.70;99.90;;;;;;5073439;28;20029;-71
2021/11/12 12:12:39;;;;;;;27.80;17.85;;;11.80;99.90;;;;;;5111264;27;20720;-70
2021/11/12 12:17:50;;;;;;;24.45;17.38;;;12.00;99.90;;;;;;5091625;28;20352;-70
2021/11/12 12:20:34;;;;;;;23.08;16.98;;;11.90;99.90;;;;;;5089441;28;20028;-70
2021/11/12 12:31:33;;;;;;;25.38;17.75;;;11.90;99.90;;;;;;5050134;28;20424;-70
2021/11/12 12:37:41;;;;;;;24.15;16.40;;;12.00;99.90;;;;;;5050193;28;20037;-71
2021/11/12 13:20:39;;;;;;;26.95;16.50;;;11.90;99.90;;;;;;5094249;28;20032;-71
2021/11/12 13:23:15;;;;;;;21.52;14.68;;;12.00;99.90;;;;;;5099077;28;20036;-70
2021/11/12 13:25:54;;;;;;;25.73;16.63;;;12.00;99.90;;;;;;5110558;28;20467;-70
2021/11/12 13:28:37;;;;;;;29.67;15.85;;;11.80;99.90;;;;;;5109652;28;20024;-70
2021/11/12 13:31:08;;;;;;;25.33;16.02;;;11.90;99.90;;;;;;5109976;28;20469;-70
2021/11/12 13:33:58;;;;;;;22.23;16.08;;;11.90;99.90;;;;;;5109005;28;20024;-70
2021/11/12 13:36:29;;;;;;;24.42;16.30;;;11.80;99.90;;;;;;5108831;28;20075;-70
2021/11/12 13:41:44;;;;;;;22.95;15.23;;;11.70;99.90;;;;;;5108271;27;21948;-70
2021/11/12 13:44:13;;;;;;;24.80;16.17;;;11.80;99.90;;;;;;5089761;28;20036;-70
2021/11/12 13:46:53;;;;;;;25.38;16.17;;;11.70;99.90;;;;;;5091074;28;20013;-70
2021/11/12 13:49:48;;;;;;;25.10;15.55;;;11.70;99.90;;;;;;5091294;28;20527;-70
2021/11/12 13:52:17;;;;;;;26.50;15.80;;;11.70;99.90;;;;;;5078314;28;20482;-70
2021/11/12 13:54:56;;;;;;;22.85;15.73;;;11.80;99.90;;;;;;5089213;28;20047;-70
2021/11/12 13:57:25;;;;;;;24.00;14.38;;;11.80;99.90;;;;;;5089109;28;20386;-70
2021/11/12 13:59:58;;;;;;;25.52;15.13;;;11.80;99.90;;;;;;5102606;28;20368;-70
2021/11/12 14:02:25;;;;;;;22.60;15.25;;;11.80;99.90;;;;;;5082171;28;20023;-70
2021/11/12 14:04:50;;;;;;;25.30;15.77;;;11.80;99.90;;;;;;5090470;28;20024;-70
2021/11/12 14:07:20;;;;;;;23.38;15.15;;;11.80;99.90;;;;;;5090322;28;20078;-70
2021/11/12 14:09:54;;;;;;;26.85;15.25;;;11.80;99.90;;;;;;5090956;28;20533;-70
2021/11/12 14:12:19;;;;;;;22.48;14.90;;;11.80;99.90;;;;;;5089318;28;20082;-70
2021/11/12 14:14:45;;;;;;;26.25;14.98;;;11.70;99.90;;;;;;5089417;28;20381;-70
2021/11/12 14:17:21;;;;;;;25.80;14.68;;;11.60;99.90;;;;;;5089110;28;20040;-70
2021/11/12 14:19:58;;;;;;;23.35;14.57;;;11.60;99.90;;;;;;5089988;28;20385;-70
2021/11/12 14:22:58;;;;;;;23.88;15.13;;;11.70;99.90;;;;;;5090290;28;20013;-70
2021/11/12 14:28:35;;;;;;;23.05;15.32;;;11.60;99.90;;;;;;5090062;28;20024;-70
2021/11/12 14:33:42;;;;;;;26.05;13.45;;;11.50;99.90;;;;;;5089709;28;20028;-70
2021/11/12 14:36:28;;;;;;;19.63;12.57;;;11.40;99.90;;;;;;5090548;28;20507;-70
2021/11/12 14:39:08;;;;;;;18.30;12.52;;;11.40;99.90;;;;;;5090495;28;20039;-71
2021/11/12 14:42:12;;;;;;;18.60;12.18;;;11.30;99.90;;;;;;5089795;28;20041;-70
2021/11/12 14:48:23;;;;;;;23.98;13.32;;;11.20;99.90;;;;;;5089623;28;19904;-70
2021/11/12 14:53:37;;;;;;;28.45;13.02;;;11.10;99.90;;;;;;5075644;28;20024;-70
2021/11/12 14:56:10;;;;;;;20.48;13.80;;;11.10;99.90;;;;;;5076416;28;20060;-70
2021/11/12 14:58:40;;;;;;;18.70;12.45;;;11.00;99.90;;;;;;5075230;28;20095;-70
2021/11/12 15:01:10;;;;;;;19.23;13.13;;;11.00;99.90;;;;;;5076524;28;20403;-70
2021/11/12 15:03:36;;;;;;;27.48;12.77;;;10.90;99.90;;;;;;5076313;28;20414;-70
2021/11/12 15:06:03;;;;;;;21.90;12.93;;;10.90;99.90;;;;;;5076526;28;20052;-70
2021/11/12 15:08:31;;;;;;;27.45;13.77;;;10.90;99.90;;;;;;5074920;28;20024;-69
2021/11/12 15:10:58;;;;;;;25.92;13.70;;;10.80;99.90;;;;;;5075268;28;20476;-70
2021/11/12 15:13:27;;;;;;;27.20;13.38;;;10.70;99.90;;;;;;5075696;28;20432;-70
2021/11/12 15:15:53;;;;;;;26.45;14.95;;;10.70;99.90;;;;;;5076045;28;20363;-70
2021/11/12 15:18:19;;;;;;;26.80;14.30;;;10.60;99.90;;;;;;5076292;28;20042;-70
2021/11/12 15:20:45;;;;;;;25.98;14.05;;;10.50;99.90;;;;;;5076175;28;20021;-70
2021/11/12 15:23:27;;;;;;;29.02;15.18;;;10.50;99.90;;;;;;5076127;28;20066;-70
2021/11/12 15:28:46;;;;;;;23.92;14.20;;;10.30;99.90;;;;;;5091731;27;20443;-70
2021/11/12 15:31:24;;;;;;;26.10;14.43;;;10.20;99.90;;;;;;5091558;28;20058;-70
2021/11/12 15:34:00;;;;;;;28.73;14.07;;;10.20;99.90;;;;;;5091483;28;20034;-68
2021/11/12 15:36:26;;;;;;;27.58;14.70;;;10.10;99.90;;;;;;5089945;28;20551;-68
2021/11/12 15:38:55;;;;;;;24.08;14.93;;;10.00;99.90;;;;;;5089567;28;20028;-68
2021/11/12 15:44:23;;;;;;;27.63;14.85;;;9.80;99.90;;;;;;5091795;28;20353;-68
2021/11/12 15:46:52;;;;;;;28.88;13.98;;;9.70;99.90;;;;;;5091499;28;20052;-68
2021/11/12 15:49:21;;;;;;;23.45;13.20;;;9.60;99.90;;;;;;5091475;28;20027;-69
2021/11/12 15:51:56;;;;;;;23.58;13.82;;;9.40;99.90;;;;;;5090380;28;20024;-67
2021/11/12 15:59:59;;;;;;;26.98;14.68;;;9.10;99.90;;;;;;5111079;28;20036;-69
2021/11/12 16:02:41;;;;;;;24.55;13.77;;;9.00;99.90;;;;;;5111848;28;20453;-69
2021/11/12 16:08:19;;;;;;;27.75;14.32;;;8.80;99.90;;;;;;5111487;28;20026;-69
2021/11/12 16:13:20;;;;;;;23.35;14.15;;;8.70;99.90;;;;;;5110980;28;20384;-69
2021/11/12 16:16:08;;;;;;;21.23;13.35;;;8.50;99.90;;;;;;5111568;28;20074;-69
2021/11/12 16:18:51;;;;;;;22.85;13.57;;;8.40;99.90;;;;;;5109890;28;20069;-69
2021/11/12 16:21:34;;;;;;;23.65;14.57;;;8.30;99.90;;;;;;5110952;28;20020;-69
2021/11/12 16:26:49;;;;;;;31.15;14.73;;;8.10;99.90;;;;;;5110713;28;20093;-69
2021/11/12 16:31:53;;;;;;;27.10;15.38;;;8.00;99.90;;;;;;5091824;28;20352;-68
2021/11/12 16:34:22;;;;;;;21.63;13.93;;;7.90;99.90;;;;;;5091304;28;20424;-69
2021/11/12 16:36:55;;;;;;;26.13;15.20;;;7.80;99.90;;;;;;5090363;28;20012;-69
2021/11/12 16:39:27;;;;;;;28.95;15.70;;;7.80;99.90;;;;;;5091143;28;20414;-69
2021/11/12 16:42:00;;;;;;;22.63;12.73;;;7.70;99.90;;;;;;5091446;28;20016;-69
2021/11/12 16:44:35;;;;;;;27.23;14.23;;;7.60;99.90;;;;;;5091335;28;20111;-69
2021/11/12 16:47:40;;;;;;;25.40;14.70;;;7.50;99.90;;;;;;5090276;28;20050;-69
2021/11/12 16:52:46;;;;;;;25.30;15.48;;;7.40;99.90;;;;;;5089587;28;20028;-68
2021/11/12 16:55:22;;;;;;;23.48;15.18;;;7.30;99.90;;;;;;5090940;28;20012;-68
2021/11/12 16:58:03;;;;;;;28.80;15.88;;;7.30;99.90;;;;;;5091149;28;20089;-68
2021/11/12 17:03:58;;;;;;;41.65;17.08;;;7.10;99.90;;;;;;5090301;28;20028;-68
2021/11/12 17:06:36;;;;;;;26.17;14.32;;;7.00;99.90;;;;;;5090269;28;20047;-69
2021/11/12 17:08:58;;;;;;;30.70;17.17;;;6.90;99.90;;;;;;5089259;28;20020;-68